createdAt,value
2018-03-26T00:00:00.731Z,76.90
2018-03-26T00:02:28.898Z,76.90
2018-03-26T00:04:57.089Z,77.20
2018-03-26T00:07:25.262Z,77.10
2018-03-26T00:09:53.425Z,77.20
2018-03-26T00:12:21.615Z,77.50
2018-03-26T00:14:49.802Z,77.50
2018-03-26T00:17:18.769Z,78.00
2018-03-26T00:19:46.948Z,77.90
2018-03-26T00:22:15.122Z,78.30
2018-03-26T00:24:43.290Z,78.10
2018-03-26T00:27:11.479Z,78.10
2018-03-26T00:29:39.692Z,78.30
2018-03-26T00:32:07.899Z,78.20
2018-03-26T00:34:36.082Z,77.90
2018-03-26T00:37:04.261Z,78.20
2018-03-26T00:39:32.437Z,78.40
2018-03-26T00:42:00.644Z,78.40
2018-03-26T00:44:28.850Z,78.30
2018-03-26T00:46:57.027Z,78.30
2018-03-26T00:49:25.232Z,78.40
2018-03-26T00:51:53.410Z,78.60
2018-03-26T00:54:21.595Z,78.70
2018-03-26T00:56:49.773Z,78.90
2018-03-26T00:59:17.940Z,79.00
2018-03-26T01:01:46.921Z,79.60
2018-03-26T01:04:15.089Z,79.50
2018-03-26T01:06:43.271Z,79.70
2018-03-26T01:09:11.433Z,79.70
2018-03-26T01:11:39.605Z,79.00
2018-03-26T01:14:07.786Z,78.90
2018-03-26T01:16:35.971Z,79.10
2018-03-26T01:19:04.141Z,79.10
2018-03-26T01:21:32.319Z,79.20
2018-03-26T01:24:00.488Z,79.30
2018-03-26T01:26:28.674Z,79.20
2018-03-26T01:28:56.846Z,79.10
2018-03-26T01:31:25.015Z,79.00
2018-03-26T01:33:53.206Z,79.50
2018-03-26T01:36:21.381Z,79.90
2018-03-26T01:38:49.575Z,80.00
2018-03-26T01:41:17.746Z,80.20
2018-03-26T01:43:45.910Z,80.40
2018-03-26T01:46:14.077Z,80.80
2018-03-26T01:48:42.257Z,81.00
2018-03-26T01:51:10.419Z,81.30
2018-03-26T01:53:38.582Z,81.30
2018-03-26T01:56:06.799Z,81.50
2018-03-26T01:58:35.005Z,81.60
2018-03-26T02:01:03.174Z,81.80
2018-03-26T02:03:32.105Z,82.50
2018-03-26T02:06:00.270Z,82.50
2018-03-26T02:08:28.475Z,82.80
2018-03-26T02:10:56.672Z,82.80
2018-03-26T02:13:25.667Z,82.30
2018-03-26T02:15:54.620Z,82.70
2018-03-26T02:18:22.789Z,82.70
2018-03-26T02:20:50.960Z,82.50
2018-03-26T02:23:19.144Z,82.70
2018-03-26T02:25:47.314Z,81.00
2018-03-26T02:28:15.513Z,81.00
2018-03-26T02:30:43.678Z,80.60
2018-03-26T02:33:11.844Z,79.90
2018-03-26T02:35:40.019Z,79.20
2018-03-26T02:38:08.196Z,79.40
2018-03-26T02:40:36.382Z,79.70
2018-03-26T02:43:04.580Z,79.80
2018-03-26T02:45:33.535Z,79.90
2018-03-26T02:48:01.706Z,79.90
2018-03-26T02:50:29.904Z,80.30
2018-03-26T02:52:58.078Z,80.60
2018-03-26T02:55:26.265Z,80.80
2018-03-26T02:57:55.233Z,81.60
2018-03-26T03:00:23.404Z,81.50
2018-03-26T03:02:51.604Z,82.00
2018-03-26T03:05:19.811Z,81.90
2018-03-26T03:07:47.988Z,82.10
2018-03-26T03:10:16.164Z,82.30
2018-03-26T03:12:44.334Z,83.30
2018-03-26T03:15:12.519Z,82.80
2018-03-26T03:17:40.696Z,83.00
2018-03-26T03:20:08.856Z,83.10
2018-03-26T03:22:37.062Z,82.90
2018-03-26T03:25:05.238Z,82.60
2018-03-26T03:27:33.410Z,82.20
2018-03-26T03:30:01.589Z,82.40
2018-03-26T03:32:29.776Z,82.80
2018-03-26T03:34:58.014Z,82.60
2018-03-26T03:37:26.208Z,82.60
2018-03-26T03:39:54.379Z,82.50
2018-03-26T03:42:22.538Z,82.50
2018-03-26T03:44:50.739Z,82.70
2018-03-26T03:47:18.998Z,82.80
2018-03-26T03:49:47.169Z,82.80
2018-03-26T03:52:15.350Z,83.10
2018-03-26T03:54:43.553Z,83.20
2018-03-26T03:57:11.750Z,83.60
2018-03-26T03:59:39.941Z,84.10
2018-03-26T04:02:08.903Z,83.80
2018-03-26T04:04:37.082Z,83.80
2018-03-26T04:07:05.259Z,83.90
2018-03-26T04:09:33.457Z,84.20
2018-03-26T04:12:02.408Z,85.50
2018-03-26T04:14:30.593Z,85.50
2018-03-26T04:16:58.764Z,85.70
2018-03-26T04:19:26.930Z,86.20
2018-03-26T04:21:55.101Z,86.70
2018-03-26T04:24:24.035Z,88.20
2018-03-26T04:26:52.999Z,88.00
2018-03-26T04:29:21.202Z,88.00
2018-03-26T04:31:50.151Z,88.30
2018-03-26T04:34:18.341Z,88.30
2018-03-26T04:36:46.720Z,88.50
2018-03-26T04:39:14.903Z,88.80
2018-03-26T04:41:43.974Z,88.90
2018-03-26T04:44:12.194Z,89.10
2018-03-26T04:46:41.136Z,89.30
2018-03-26T04:49:09.318Z,89.20
2018-03-26T04:51:37.531Z,89.40
2018-03-26T04:54:05.693Z,90.10
2018-03-26T04:56:33.858Z,90.20
2018-03-26T04:59:02.049Z,90.30
2018-03-26T05:01:30.227Z,90.60
2018-03-26T05:03:58.411Z,90.40
2018-03-26T05:06:27.353Z,89.90
2018-03-26T05:08:55.565Z,89.90
2018-03-26T05:11:24.587Z,89.70
2018-03-26T05:13:53.537Z,89.90
2018-03-26T05:16:21.719Z,89.80
2018-03-26T05:18:49.897Z,90.10
2018-03-26T05:21:18.114Z,89.60
2018-03-26T05:23:46.341Z,90.00
2018-03-26T05:26:14.528Z,89.60
2018-03-26T05:28:42.725Z,89.50
2018-03-26T05:31:11.682Z,89.10
2018-03-26T05:33:39.894Z,89.10
2018-03-26T05:36:08.075Z,89.20
2018-03-26T05:38:36.256Z,90.00
2018-03-26T05:41:04.432Z,89.60
2018-03-26T05:43:32.603Z,89.40
2018-03-26T05:46:00.795Z,89.30
2018-03-26T05:48:28.991Z,89.30
2018-03-26T05:50:57.171Z,89.70
2018-03-26T05:53:25.371Z,89.90
2018-03-26T05:55:53.549Z,89.60
2018-03-26T05:58:22.531Z,88.90
2018-03-26T06:00:50.705Z,88.80
2018-03-26T06:03:18.886Z,88.60
2018-03-26T06:05:47.087Z,88.60
2018-03-26T06:08:16.026Z,88.30
2018-03-26T06:10:44.204Z,88.30
2018-03-26T06:13:12.402Z,88.40
2018-03-26T06:15:40.571Z,88.00
2018-03-26T06:18:08.734Z,87.80
2018-03-26T06:20:36.946Z,87.40
2018-03-26T06:23:05.891Z,87.10
2018-03-26T06:25:34.114Z,87.10
2018-03-26T06:28:03.066Z,87.50
2018-03-26T06:30:31.254Z,87.50
2018-03-26T06:33:00.231Z,86.50
2018-03-26T06:35:28.422Z,86.50
2018-03-26T06:40:55.070Z,85.30
2018-03-26T06:43:24.022Z,84.90
2018-03-26T06:45:52.216Z,84.80
2018-03-26T06:48:20.412Z,84.90
2018-03-26T06:50:48.620Z,85.00
2018-03-26T06:53:17.559Z,85.70
2018-03-26T06:55:45.731Z,85.60
2018-03-26T06:58:13.924Z,85.80
2018-03-26T07:00:42.137Z,85.80
2018-03-26T07:03:11.095Z,85.40
2018-03-26T07:05:39.278Z,85.20
2018-03-26T07:08:07.463Z,84.80
2018-03-26T07:10:35.639Z,83.70
2018-03-26T07:13:03.809Z,82.90
2018-03-26T07:15:31.989Z,81.70
2018-03-26T07:18:00.185Z,80.80
2018-03-26T07:20:29.122Z,80.10
2018-03-26T07:22:57.324Z,80.00
2018-03-26T07:25:25.517Z,83.70
2018-03-26T07:27:54.456Z,76.80
2018-03-26T07:30:22.641Z,76.80
2018-03-26T07:32:50.829Z,76.10
2018-03-26T07:35:19.788Z,76.10
2018-03-26T07:37:47.982Z,76.00
2018-03-26T07:40:16.167Z,75.90
2018-03-26T07:42:44.377Z,76.00
2018-03-26T07:45:13.318Z,76.30
2018-03-26T07:47:41.479Z,76.30
2018-03-26T07:50:09.647Z,76.20
2018-03-26T07:52:37.834Z,76.20
2018-03-26T07:55:05.994Z,75.70
2018-03-26T07:57:34.168Z,74.90
2018-03-26T08:00:02.397Z,74.60
2018-03-26T08:02:30.610Z,74.20
2018-03-26T08:04:59.563Z,73.80
2018-03-26T08:07:27.738Z,73.70
2018-03-26T08:09:55.924Z,73.10
2018-03-26T08:12:24.112Z,73.10
2018-03-26T08:14:53.071Z,72.40
2018-03-26T08:17:22.211Z,71.80
2018-03-26T08:19:50.356Z,71.90
2018-03-26T08:22:18.538Z,71.60
2018-03-26T08:24:46.721Z,71.30
2018-03-26T08:27:15.664Z,70.30
2018-03-26T08:29:43.847Z,70.00
2018-03-26T08:32:12.010Z,68.60
2018-03-26T08:34:40.191Z,68.10
2018-03-26T08:37:08.365Z,67.00
2018-03-26T08:39:36.533Z,66.70
2018-03-26T08:42:04.750Z,66.60
2018-03-26T08:44:32.938Z,66.60
2018-03-26T08:47:01.890Z,66.70
2018-03-26T08:49:30.071Z,66.60
2018-03-26T08:51:58.261Z,65.50
2018-03-26T08:54:26.442Z,65.50
2018-03-26T08:56:54.618Z,64.70
2018-03-26T08:59:22.817Z,63.70
2018-03-26T09:01:51.754Z,60.10
2018-03-26T09:04:19.963Z,60.00
2018-03-26T09:06:48.145Z,60.00
2018-03-26T09:09:17.098Z,59.20
2018-03-26T09:11:45.276Z,59.20
2018-03-26T09:14:13.454Z,58.50
2018-03-26T09:16:41.631Z,58.80
2018-03-26T09:19:09.798Z,59.40
2018-03-26T09:21:37.971Z,59.50
2018-03-26T09:24:06.142Z,58.80
2018-03-26T09:26:34.319Z,58.40
2018-03-26T09:29:02.510Z,58.00
2018-03-26T09:31:30.695Z,58.60
2018-03-26T09:33:58.862Z,58.20
2018-03-26T09:36:27.035Z,57.60
2018-03-26T09:38:55.199Z,57.50
2018-03-26T09:41:23.390Z,55.70
2018-03-26T09:43:51.582Z,55.70
2018-03-26T09:46:20.580Z,53.90
2018-03-26T09:48:48.723Z,53.90
2018-03-26T09:51:16.897Z,53.50
2018-03-26T09:53:45.086Z,53.20
2018-03-26T09:56:13.264Z,54.00
2018-03-26T09:58:41.453Z,53.30
2018-03-26T10:01:16.088Z,52.30
2018-03-26T10:03:45.038Z,50.30
2018-03-26T10:06:13.230Z,50.10
2018-03-26T10:08:41.407Z,49.50
2018-03-26T10:11:09.589Z,48.70
2018-03-26T10:13:38.541Z,47.10
2018-03-26T10:16:06.711Z,47.10
2018-03-26T10:18:34.883Z,46.40
2018-03-26T10:21:03.088Z,46.00
2018-03-26T10:23:31.273Z,45.40
2018-03-26T10:25:59.446Z,45.40
2018-03-26T10:28:27.628Z,44.70
2018-03-26T10:30:55.804Z,45.10
2018-03-26T10:33:23.976Z,45.60
2018-03-26T10:35:52.154Z,45.90
2018-03-26T10:38:20.360Z,47.10
2018-03-26T10:40:48.531Z,48.40
2018-03-26T10:43:16.714Z,47.70
2018-03-26T10:45:44.896Z,46.50
2018-03-26T10:48:13.077Z,46.00
2018-03-26T10:50:41.251Z,47.10
2018-03-26T10:53:09.465Z,47.50
2018-03-26T10:55:37.646Z,47.20
2018-03-26T10:58:05.819Z,45.60
2018-03-26T11:00:34.055Z,45.90
2018-03-26T11:03:02.954Z,46.40
2018-03-26T11:05:31.138Z,46.30
2018-03-26T11:07:59.321Z,45.90
2018-03-26T11:10:27.535Z,46.10
2018-03-26T11:12:56.479Z,45.00
2018-03-26T11:15:24.647Z,45.00
2018-03-26T11:17:52.834Z,45.60
2018-03-26T11:20:21.012Z,45.90
2018-03-26T11:22:49.187Z,45.70
2018-03-26T11:25:17.363Z,44.20
2018-03-26T11:27:45.537Z,43.30
2018-03-26T11:30:13.710Z,44.70
2018-03-26T11:32:41.909Z,45.30
2018-03-26T11:35:10.118Z,45.80
2018-03-26T11:37:38.294Z,46.40
2018-03-26T11:40:06.471Z,47.60
2018-03-26T11:42:34.643Z,48.40
2018-03-26T11:45:02.842Z,48.70
2018-03-26T11:47:31.014Z,48.10
2018-03-26T11:49:59.185Z,46.20
2018-03-26T11:52:27.363Z,42.70
2018-03-26T11:54:55.556Z,40.30
2018-03-26T11:57:23.744Z,40.00
2018-03-26T11:59:51.943Z,39.20
2018-03-26T12:02:20.886Z,40.40
2018-03-26T12:04:49.089Z,40.40
2018-03-26T12:07:17.280Z,41.00
2018-03-26T12:09:46.218Z,41.30
2018-03-26T12:12:14.410Z,41.20
2018-03-26T12:14:42.606Z,42.20
2018-03-26T12:17:10.783Z,44.00
2018-03-26T12:22:42.843Z,47.00
2018-03-26T12:25:14.944Z,46.90
2018-03-26T12:28:01.678Z,47.50
2018-03-26T12:30:29.855Z,47.40
2018-03-26T12:32:58.028Z,45.40
2018-03-26T12:35:44.225Z,38.90
2018-03-26T12:38:12.423Z,36.90
2018-03-26T12:40:55.153Z,33.40
2018-03-26T12:43:23.337Z,31.70
2018-03-26T12:46:09.304Z,31.60
2018-03-26T12:48:37.479Z,32.60
2018-03-26T12:51:23.537Z,31.60
2018-03-26T12:53:52.480Z,32.50
2018-03-26T12:56:20.651Z,32.50
2018-03-26T12:58:49.778Z,32.00
2018-03-26T13:01:35.756Z,32.00
2018-03-26T13:04:03.930Z,32.70
2018-03-26T13:06:32.126Z,36.00
2018-03-26T13:09:01.082Z,36.90
2018-03-26T13:11:29.262Z,36.20
2018-03-26T13:13:57.468Z,37.80
2018-03-26T13:16:25.653Z,39.80
2018-03-26T13:18:54.596Z,41.30
2018-03-26T13:21:22.767Z,41.10
2018-03-26T13:23:50.943Z,41.70
2018-03-26T13:26:19.144Z,41.70
2018-03-26T13:28:47.309Z,41.20
2018-03-26T13:31:15.485Z,40.70
2018-03-26T13:33:43.709Z,40.60
2018-03-26T13:36:11.869Z,40.10
2018-03-26T13:38:40.820Z,39.70
2018-03-26T13:41:09.001Z,39.70
2018-03-26T13:43:37.171Z,36.50
2018-03-26T13:46:05.444Z,33.00
2018-03-26T13:48:33.652Z,30.60
2018-03-26T13:51:01.838Z,29.10
2018-03-26T13:53:30.789Z,32.10
2018-03-26T13:55:58.995Z,32.00
2018-03-26T13:58:27.167Z,34.60
2018-03-26T14:00:55.347Z,36.90
2018-03-26T14:03:24.289Z,40.10
2018-03-26T14:05:52.583Z,40.00
2018-03-26T14:08:38.545Z,41.10
2018-03-26T14:11:24.622Z,42.50
2018-03-26T14:14:10.583Z,43.20
2018-03-26T14:16:56.471Z,43.80
2018-03-26T14:19:24.654Z,44.20
2018-03-26T14:21:52.831Z,44.70
2018-03-26T14:24:21.786Z,46.40
2018-03-26T14:26:49.970Z,46.20
2018-03-26T14:29:18.161Z,46.60
2018-03-26T14:31:46.327Z,47.00
2018-03-26T14:34:14.507Z,47.30
2018-03-26T14:36:42.693Z,47.10
2018-03-26T14:39:10.887Z,46.90
2018-03-26T14:41:39.837Z,47.00
2018-03-26T14:44:08.050Z,46.90
2018-03-26T14:46:37.011Z,47.40
2018-03-26T14:49:05.203Z,47.30
2018-03-26T14:51:33.406Z,48.10
2018-03-26T14:54:02.376Z,48.70
2018-03-26T14:56:30.562Z,48.70
2018-03-26T14:58:59.534Z,48.50
2018-03-26T15:01:27.730Z,48.40
2018-03-26T15:04:01.151Z,48.40
2018-03-26T15:06:29.366Z,48.40
2018-03-26T15:08:57.578Z,48.20
2018-03-26T15:11:26.830Z,49.20
2018-03-26T15:13:55.007Z,49.20
2018-03-26T15:16:23.188Z,49.90
2018-03-26T15:18:51.372Z,50.10
2018-03-26T15:21:19.542Z,51.00
2018-03-26T15:23:47.742Z,51.00
2018-03-26T15:26:16.702Z,52.10
2018-03-26T15:28:44.888Z,52.10
2018-03-26T15:31:13.088Z,52.50
2018-03-26T15:33:42.070Z,53.70
2018-03-26T15:36:10.256Z,53.60
2018-03-26T15:38:39.212Z,54.80
2018-03-26T15:41:07.433Z,54.70
2018-03-26T15:43:36.401Z,55.80
2018-03-26T15:46:04.590Z,55.60
2018-03-26T15:48:33.541Z,56.40
2018-03-26T15:51:01.740Z,56.30
2018-03-26T15:53:29.913Z,56.90
2018-03-26T15:55:58.142Z,57.50
2018-03-26T15:58:26.318Z,57.50
2018-03-26T16:00:54.498Z,57.50
2018-03-26T16:03:28.134Z,57.80
2018-03-26T16:05:56.326Z,58.10
2018-03-26T16:08:24.512Z,58.20
2018-03-26T16:10:53.462Z,58.70
2018-03-26T16:13:21.634Z,58.60
2018-03-26T16:15:49.858Z,58.90
2018-03-26T16:18:18.830Z,59.40
2018-03-26T16:20:47.049Z,59.30
2018-03-26T16:23:15.254Z,59.30
2018-03-26T16:25:43.519Z,59.50
2018-03-26T16:28:11.694Z,59.50
2018-03-26T16:30:39.865Z,60.80
2018-03-26T16:33:08.034Z,61.20
2018-03-26T16:35:36.213Z,61.40
2018-03-26T16:38:04.408Z,61.20
2018-03-26T16:40:32.587Z,61.90
2018-03-26T16:43:06.610Z,61.80
2018-03-26T16:45:34.799Z,62.80
2018-03-26T16:48:02.976Z,62.90
2018-03-26T16:50:31.178Z,63.20
2018-03-26T16:52:59.378Z,63.10
2018-03-26T16:55:27.553Z,63.30
2018-03-26T16:57:55.721Z,63.80
2018-03-26T17:00:23.938Z,64.40
2018-03-26T17:02:52.125Z,64.50
2018-03-26T17:05:20.298Z,64.70
2018-03-26T17:07:48.480Z,65.20
2018-03-26T17:10:17.453Z,65.60
2018-03-26T17:12:45.635Z,65.40
2018-03-26T17:15:13.805Z,65.80
2018-03-26T17:17:41.996Z,66.20
2018-03-26T17:20:11.104Z,66.80
2018-03-26T17:22:40.095Z,67.10
2018-03-26T17:25:09.886Z,68.60
2018-03-26T17:27:38.072Z,68.50
2018-03-26T17:30:07.035Z,68.20
2018-03-26T17:32:35.237Z,67.90
2018-03-26T17:35:04.200Z,67.80
2018-03-26T17:37:32.365Z,67.70
2018-03-26T17:40:00.550Z,67.90
2018-03-26T17:42:28.719Z,68.20
2018-03-26T17:44:56.924Z,68.50
2018-03-26T17:47:25.122Z,68.70
2018-03-26T17:49:54.083Z,69.70
2018-03-26T17:52:22.279Z,70.40
2018-03-26T17:54:51.232Z,69.30
2018-03-26T17:57:20.188Z,69.50
2018-03-26T17:59:48.371Z,69.50
2018-03-26T18:02:16.751Z,69.80
2018-03-26T18:04:44.991Z,70.10
2018-03-26T18:07:13.963Z,70.40
2018-03-26T18:09:42.151Z,70.40
2018-03-26T18:12:10.339Z,70.60
2018-03-26T18:14:39.511Z,71.00
2018-03-26T18:17:07.689Z,70.80
2018-03-26T18:19:35.855Z,71.20
2018-03-26T18:22:04.076Z,71.10
2018-03-26T18:24:33.011Z,71.50
2018-03-26T18:27:01.182Z,71.50
2018-03-26T18:29:29.394Z,71.70
2018-03-26T18:31:57.562Z,71.70
2018-03-26T18:34:25.760Z,72.10
2018-03-26T18:36:54.699Z,72.10
2018-03-26T18:39:22.894Z,72.00
2018-03-26T18:41:51.060Z,72.30
2018-03-26T18:44:19.238Z,72.70
2018-03-26T18:46:47.418Z,73.00
2018-03-26T18:49:15.600Z,72.90
2018-03-26T18:51:43.796Z,73.00
2018-03-26T18:54:12.732Z,73.50
2018-03-26T18:56:40.926Z,73.40
2018-03-26T18:59:09.103Z,73.80
2018-03-26T19:01:37.289Z,74.00
2018-03-26T19:04:05.511Z,74.10
2018-03-26T19:06:33.687Z,74.20
2018-03-26T19:09:01.877Z,74.60
2018-03-26T19:11:30.091Z,74.90
2018-03-26T19:13:58.293Z,74.80
2018-03-26T19:16:27.294Z,74.90
2018-03-26T19:18:56.259Z,74.90
2018-03-26T19:21:24.473Z,74.90
2018-03-26T19:23:52.668Z,75.80
2018-03-26T19:26:21.792Z,75.10
2018-03-26T19:28:49.960Z,75.30
2018-03-26T19:31:18.163Z,75.20
2018-03-26T19:33:47.126Z,75.60
2018-03-26T19:36:15.299Z,75.50
2018-03-26T19:38:43.504Z,75.70
2018-03-26T19:41:11.709Z,76.00
2018-03-26T19:43:39.955Z,76.10
2018-03-26T19:46:08.130Z,76.70
2018-03-26T19:48:37.084Z,76.40
2018-03-26T19:51:05.256Z,76.40
2018-03-26T19:53:33.444Z,76.60
2018-03-26T19:56:01.620Z,76.70
2018-03-26T19:58:29.827Z,76.70
2018-03-26T20:00:57.987Z,76.60
2018-03-26T20:03:26.192Z,76.60
2018-03-26T20:05:55.135Z,76.60
2018-03-26T20:08:23.327Z,76.60
2018-03-26T20:10:51.499Z,76.50
2018-03-26T20:13:19.687Z,76.60
2018-03-26T20:15:47.894Z,76.70
2018-03-26T20:18:16.203Z,77.50
2018-03-26T20:20:44.479Z,78.80
2018-03-26T20:23:12.749Z,79.30
2018-03-26T20:25:41.755Z,79.60
2018-03-26T20:28:09.938Z,79.50
2018-03-26T20:30:38.123Z,80.40
2018-03-26T20:33:06.335Z,79.20
2018-03-26T20:35:35.362Z,80.00
2018-03-26T20:38:03.575Z,79.90
2018-03-26T20:40:31.852Z,79.10
2018-03-26T20:43:00.041Z,78.90
2018-03-26T20:45:28.989Z,79.00
2018-03-26T20:47:57.177Z,78.90
2018-03-26T20:50:25.400Z,78.80
2018-03-26T20:52:53.579Z,78.90
2018-03-26T20:55:21.780Z,79.10
2018-03-26T20:57:49.978Z,79.00
2018-03-26T21:00:18.148Z,78.70
2018-03-26T21:02:46.332Z,78.90
2018-03-26T21:05:14.545Z,79.20
2018-03-26T21:07:43.478Z,79.60
2018-03-26T21:10:11.641Z,79.50
2018-03-26T21:12:39.951Z,79.80
2018-03-26T21:15:08.122Z,80.10
2018-03-26T21:17:36.303Z,80.40
2018-03-26T21:20:04.489Z,80.40
2018-03-26T21:22:32.702Z,80.30
2018-03-26T21:25:00.911Z,80.80
2018-03-26T21:27:29.086Z,81.50
2018-03-26T21:29:57.250Z,81.70
2018-03-26T21:32:25.437Z,81.60
2018-03-26T21:34:53.609Z,82.20
2018-03-26T21:37:21.791Z,82.50
2018-03-26T21:39:49.965Z,82.10
2018-03-26T21:42:18.175Z,82.50
2018-03-26T21:44:47.112Z,82.60
2018-03-26T21:47:15.283Z,82.40
2018-03-26T21:49:43.446Z,82.60
2018-03-26T21:52:11.612Z,82.70
2018-03-26T21:54:39.789Z,83.00
2018-03-26T21:57:07.974Z,82.40
2018-03-26T21:59:36.136Z,82.00
2018-03-26T22:02:04.317Z,82.20
2018-03-26T22:04:32.536Z,82.80
2018-03-26T22:07:00.695Z,82.30
2018-03-26T22:09:28.884Z,83.10
2018-03-26T22:11:57.029Z,83.50
2018-03-26T22:14:25.197Z,83.80
2018-03-26T22:16:53.337Z,84.10
2018-03-26T22:19:22.269Z,84.50
2018-03-26T22:21:50.397Z,84.30
2018-03-26T22:24:19.302Z,84.30
2018-03-26T22:26:48.219Z,84.70
2018-03-26T22:29:16.360Z,84.70
2018-03-26T22:31:45.263Z,84.50
2018-03-26T22:34:14.167Z,84.70
2018-03-26T22:36:42.327Z,84.60
2018-03-26T22:39:11.261Z,85.40
2018-03-26T22:41:39.433Z,85.40
2018-03-26T22:44:07.609Z,85.60
2018-03-26T22:46:35.782Z,85.50
2018-03-26T22:49:03.967Z,85.40
2018-03-26T22:51:32.138Z,85.20
2018-03-26T22:54:00.316Z,85.00
2018-03-26T22:56:28.464Z,84.90
2018-03-26T22:58:56.622Z,84.70
2018-03-26T23:01:24.779Z,85.10
2018-03-26T23:03:53.715Z,85.90
2018-03-26T23:06:21.880Z,85.80
2018-03-26T23:08:50.074Z,86.10
2018-03-26T23:11:18.271Z,86.00
2018-03-26T23:13:46.464Z,86.20
2018-03-26T23:16:15.408Z,86.20
2018-03-26T23:18:43.587Z,86.00
2018-03-26T23:21:11.775Z,86.00
2018-03-26T23:23:39.945Z,86.10
2018-03-26T23:26:08.118Z,85.60
2018-03-26T23:28:36.323Z,85.00
2018-03-26T23:31:04.489Z,85.10
2018-03-26T23:33:32.700Z,85.40
2018-03-26T23:36:00.865Z,85.10
2018-03-26T23:38:29.819Z,85.90
2018-03-26T23:40:57.983Z,85.90
2018-03-26T23:43:26.154Z,86.10
2018-03-26T23:45:55.078Z,87.20
2018-03-26T23:48:23.277Z,86.40
2018-03-26T23:50:51.461Z,86.90
2018-03-26T23:53:19.626Z,87.30
2018-03-26T23:55:48.566Z,88.10
2018-03-26T23:58:16.743Z,88.00
